createdAt,value
2019-03-11T00:01:41.831Z,6.00
2019-03-11T00:04:10.228Z,6.20
2019-03-11T00:06:38.150Z,5.55
2019-03-11T00:09:06.118Z,6.62
2019-03-11T00:11:33.541Z,5.70
2019-03-11T00:14:00.931Z,6.95
2019-03-11T00:16:28.311Z,5.22
2019-03-11T00:18:55.674Z,6.25
2019-03-11T00:21:23.070Z,5.67
2019-03-11T00:23:50.456Z,5.37
2019-03-11T00:26:17.843Z,6.28
2019-03-11T00:28:45.212Z,5.40
2019-03-11T00:31:12.617Z,6.12
2019-03-11T00:33:39.980Z,4.92
2019-03-11T00:36:07.343Z,4.45
2019-03-11T00:38:34.751Z,6.47
2019-03-11T00:41:02.101Z,5.53
2019-03-11T00:43:29.477Z,6.28
2019-03-11T00:45:56.881Z,5.72
2019-03-11T00:48:24.269Z,6.33
2019-03-11T00:50:51.630Z,6.55
2019-03-11T00:53:18.995Z,6.15
2019-03-11T00:55:46.390Z,6.40
2019-03-11T00:58:13.751Z,6.55
2019-03-11T01:00:41.105Z,5.60
2019-03-11T01:03:08.523Z,5.92
2019-03-11T01:05:35.884Z,6.97
2019-03-11T01:08:03.260Z,6.78
2019-03-11T01:10:30.661Z,6.65
2019-03-11T01:12:58.052Z,6.25
2019-03-11T01:15:25.526Z,6.37
2019-03-11T01:17:52.978Z,5.67
2019-03-11T01:20:20.387Z,6.30
2019-03-11T01:22:47.753Z,5.95
2019-03-11T01:25:15.867Z,6.80
2019-03-11T01:27:43.313Z,6.80
2019-03-11T01:30:11.959Z,6.00
2019-03-11T01:32:39.348Z,5.60
2019-03-11T01:35:07.391Z,7.25
2019-03-11T01:37:34.775Z,5.67
2019-03-11T01:40:02.152Z,5.97
2019-03-11T01:42:29.525Z,5.83
2019-03-11T01:44:56.910Z,7.85
2019-03-11T01:47:24.319Z,6.75
2019-03-11T01:49:51.680Z,5.95
2019-03-11T01:52:19.038Z,7.33
2019-03-11T01:54:46.455Z,7.65
2019-03-11T01:57:13.847Z,7.35
2019-03-11T01:59:41.213Z,6.72
2019-03-11T02:02:08.599Z,5.55
2019-03-11T02:04:35.961Z,6.58
2019-03-11T02:07:03.333Z,6.92
2019-03-11T02:09:30.723Z,6.30
2019-03-11T02:11:58.117Z,5.65
2019-03-11T02:14:25.555Z,4.75
2019-03-11T02:16:52.942Z,6.03
2019-03-11T02:19:20.423Z,4.90
2019-03-11T02:21:47.780Z,5.25
2019-03-11T02:24:15.155Z,5.42
2019-03-11T02:26:42.550Z,5.70
2019-03-11T02:29:09.996Z,5.12
2019-03-11T02:31:37.356Z,5.28
2019-03-11T02:34:04.743Z,4.40
2019-03-11T02:36:32.104Z,5.25
2019-03-11T02:38:59.479Z,3.80
2019-03-11T02:41:26.856Z,4.10
2019-03-11T02:43:54.229Z,4.12
2019-03-11T02:46:21.604Z,5.40
2019-03-11T02:48:48.993Z,4.00
2019-03-11T02:51:16.364Z,3.60
2019-03-11T02:53:43.736Z,4.05
2019-03-11T02:56:11.111Z,4.42
2019-03-11T02:58:38.522Z,4.00
2019-03-11T03:01:23.942Z,4.12
2019-03-11T03:04:11.134Z,4.28
2019-03-11T03:06:38.498Z,4.45
2019-03-11T03:09:07.397Z,4.40
2019-03-11T03:11:34.784Z,4.37
2019-03-11T03:14:02.151Z,4.62
2019-03-11T03:16:29.574Z,4.42
2019-03-11T03:18:56.952Z,4.62
2019-03-11T03:21:24.418Z,5.05
2019-03-11T03:23:51.798Z,4.62
2019-03-11T03:26:19.172Z,4.15
2019-03-11T03:28:46.531Z,4.37
2019-03-11T03:31:13.935Z,4.42
2019-03-11T03:33:41.350Z,4.40
2019-03-11T03:36:08.744Z,4.45
2019-03-11T03:38:36.125Z,3.87
2019-03-11T03:41:03.491Z,4.35
2019-03-11T03:43:30.876Z,4.05
2019-03-11T03:45:58.261Z,3.92
2019-03-11T03:48:25.753Z,4.17
2019-03-11T03:50:53.263Z,4.08
2019-03-11T03:53:20.654Z,3.98
2019-03-11T03:55:48.076Z,4.22
2019-03-11T03:58:15.439Z,3.77
2019-03-11T04:00:42.871Z,3.90
2019-03-11T04:03:11.182Z,3.42
2019-03-11T04:05:38.570Z,4.28
2019-03-11T04:08:05.947Z,3.60
2019-03-11T04:10:33.378Z,4.53
2019-03-11T04:13:00.786Z,4.17
2019-03-11T04:15:28.220Z,4.10
2019-03-11T04:17:55.620Z,4.97
2019-03-11T04:20:24.685Z,4.58
2019-03-11T04:22:52.147Z,4.80
2019-03-11T04:25:19.555Z,5.00
2019-03-11T04:27:47.043Z,5.58
2019-03-11T04:30:21.507Z,5.55
2019-03-11T04:32:48.948Z,5.67
2019-03-11T04:35:16.308Z,6.60
2019-03-11T04:37:43.771Z,5.70
2019-03-11T04:40:12.241Z,6.15
2019-03-11T04:42:39.609Z,6.12
2019-03-11T04:45:08.387Z,6.37
2019-03-11T04:47:35.794Z,6.08
2019-03-11T04:50:04.087Z,5.90
2019-03-11T04:52:31.464Z,6.12
2019-03-11T04:54:58.835Z,6.62
2019-03-11T04:57:26.251Z,4.85
2019-03-11T04:59:53.635Z,5.37
2019-03-11T05:02:21.030Z,5.28
2019-03-11T05:04:48.424Z,5.28
2019-03-11T05:07:15.835Z,5.62
2019-03-11T05:09:43.203Z,5.12
2019-03-11T05:12:10.577Z,4.87
2019-03-11T05:14:37.984Z,4.67
2019-03-11T05:17:05.389Z,4.90
2019-03-11T05:19:32.769Z,5.60
2019-03-11T05:22:00.225Z,4.70
2019-03-11T05:24:27.594Z,4.28
2019-03-11T05:26:55.002Z,4.15
2019-03-11T05:29:22.379Z,4.15
2019-03-11T05:31:49.734Z,4.25
2019-03-11T05:34:18.420Z,3.85
2019-03-11T05:36:46.088Z,4.28
2019-03-11T05:39:13.453Z,4.00
2019-03-11T05:41:40.839Z,3.50
2019-03-11T05:44:08.224Z,4.17
2019-03-11T05:46:35.668Z,4.53
2019-03-11T05:49:03.034Z,4.45
2019-03-11T05:51:31.841Z,3.62
2019-03-11T05:53:59.562Z,4.08
2019-03-11T05:56:26.982Z,4.12
2019-03-11T05:58:54.389Z,3.95
2019-03-11T06:01:21.848Z,3.77
2019-03-11T06:03:49.234Z,4.25
2019-03-11T06:06:16.648Z,4.35
2019-03-11T06:08:44.074Z,6.22
2019-03-11T06:11:11.448Z,4.20
2019-03-11T06:13:38.841Z,4.65
2019-03-11T06:16:06.200Z,4.33
2019-03-11T06:18:44.604Z,5.00
2019-03-11T06:21:13.874Z,4.60
2019-03-11T06:23:41.260Z,5.50
2019-03-11T06:26:08.696Z,6.53
2019-03-11T06:28:36.094Z,6.58
2019-03-11T06:31:05.007Z,5.28
2019-03-11T06:33:32.415Z,5.05
2019-03-11T06:35:59.779Z,5.58
2019-03-11T06:38:27.168Z,5.75
2019-03-11T06:40:54.588Z,5.10
2019-03-11T06:43:22.057Z,6.30
2019-03-11T06:45:49.470Z,5.53
2019-03-11T06:48:16.837Z,5.28
2019-03-11T06:50:44.245Z,4.45
2019-03-11T06:53:11.733Z,4.58
2019-03-11T06:55:39.133Z,5.10
2019-03-11T06:58:06.598Z,4.45
2019-03-11T07:00:33.979Z,5.03
2019-03-11T07:03:01.382Z,5.15
2019-03-11T07:05:28.759Z,4.00
2019-03-11T07:07:56.215Z,5.83
2019-03-11T07:10:23.626Z,4.35
2019-03-11T07:12:50.984Z,5.05
2019-03-11T07:15:18.389Z,4.95
2019-03-11T07:17:45.782Z,4.80
2019-03-11T07:20:16.519Z,5.90
2019-03-11T07:22:44.006Z,5.67
2019-03-11T07:25:11.438Z,5.17
2019-03-11T07:27:38.815Z,5.70
2019-03-11T07:30:07.772Z,5.37
2019-03-11T07:32:35.145Z,5.47
2019-03-11T07:35:08.302Z,4.47
2019-03-11T07:37:31.654Z,4.33
2019-03-11T07:39:59.017Z,5.05
2019-03-11T07:42:26.391Z,4.67
2019-03-11T07:44:53.808Z,4.15
2019-03-11T07:47:21.226Z,5.22
2019-03-11T07:49:48.626Z,4.47
2019-03-11T07:52:16.002Z,4.22
2019-03-11T07:54:43.372Z,4.58
2019-03-11T07:57:11.230Z,4.62
2019-03-11T07:59:38.831Z,4.17
2019-03-11T08:02:06.858Z,4.47
2019-03-11T08:04:34.241Z,4.53
2019-03-11T08:07:01.671Z,3.67
2019-03-11T08:09:37.436Z,4.25
2019-03-11T08:11:58.204Z,3.98
2019-03-11T08:14:25.634Z,3.75
2019-03-11T08:16:53.038Z,3.60
2019-03-11T08:19:20.414Z,3.80
2019-03-11T08:21:47.834Z,3.45
2019-03-11T08:24:16.663Z,4.25
2019-03-11T08:26:44.390Z,3.70
2019-03-11T08:29:11.762Z,3.77
2019-03-11T08:31:39.178Z,3.98
2019-03-11T08:34:06.568Z,3.50
2019-03-11T08:36:33.951Z,4.00
2019-03-11T08:39:01.452Z,3.47
2019-03-11T08:41:28.928Z,3.80
2019-03-11T08:43:56.313Z,3.47
2019-03-11T08:46:23.680Z,3.80
2019-03-11T08:48:51.048Z,4.05
2019-03-11T08:51:18.461Z,3.95
2019-03-11T08:53:45.818Z,3.83
2019-03-11T08:56:13.196Z,4.05
2019-03-11T08:58:40.670Z,3.67
2019-03-11T09:01:08.049Z,3.72
2019-03-11T09:03:35.495Z,3.80
2019-03-11T09:06:02.946Z,3.92
2019-03-11T09:08:30.399Z,3.10
2019-03-11T09:10:57.805Z,4.00
2019-03-11T09:13:25.252Z,5.12
2019-03-11T09:15:53.043Z,4.75
2019-03-11T09:18:20.576Z,4.22
2019-03-11T09:20:47.942Z,2.95
2019-03-11T09:23:15.344Z,3.47
2019-03-11T09:25:42.716Z,4.28
2019-03-11T09:28:10.102Z,3.55
2019-03-11T09:30:37.507Z,5.35
2019-03-11T09:33:04.915Z,14.73
2019-03-11T09:35:34.413Z,3.17
2019-03-11T09:38:04.618Z,2.77
2019-03-11T09:40:32.027Z,3.08
2019-03-11T09:42:59.427Z,4.05
2019-03-11T09:45:26.827Z,3.27
2019-03-11T09:47:54.751Z,3.12
2019-03-11T09:50:23.184Z,3.67
2019-03-11T09:52:50.595Z,4.65
2019-03-11T09:55:21.400Z,2.83
2019-03-11T09:57:48.879Z,2.50
2019-03-11T10:00:17.681Z,2.60
2019-03-11T10:02:52.530Z,6.50
2019-03-11T10:05:14.576Z,3.27
2019-03-11T10:07:41.971Z,3.40
2019-03-11T10:10:13.371Z,2.92
2019-03-11T10:12:40.785Z,3.02
2019-03-11T10:15:10.104Z,2.50
2019-03-11T10:17:37.477Z,3.00
2019-03-11T10:20:06.450Z,18.52
2019-03-11T10:22:33.857Z,7.03
2019-03-11T10:25:01.235Z,2.70
2019-03-11T10:27:28.624Z,2.90
2019-03-11T10:29:57.167Z,3.00
2019-03-11T10:32:24.582Z,3.52
2019-03-11T10:34:51.963Z,3.30
2019-03-11T10:37:19.348Z,3.27
2019-03-11T10:39:47.981Z,2.80
2019-03-11T10:42:15.637Z,2.87
2019-03-11T10:44:43.034Z,2.75
2019-03-11T10:47:10.415Z,2.87
2019-03-11T10:49:37.875Z,2.62
2019-03-11T10:52:07.304Z,2.83
2019-03-11T10:54:34.356Z,2.50
2019-03-11T10:57:01.763Z,3.02
2019-03-11T10:59:29.159Z,2.75
2019-03-11T11:01:56.556Z,3.10
2019-03-11T11:04:23.963Z,2.58
2019-03-11T11:06:51.343Z,3.47
2019-03-11T11:09:18.770Z,3.73
2019-03-11T11:11:46.233Z,2.80
2019-03-11T11:14:13.700Z,2.93
2019-03-11T11:16:41.194Z,2.97
2019-03-11T11:19:08.690Z,2.45
2019-03-11T11:21:36.126Z,2.93
2019-03-11T11:24:03.498Z,3.22
2019-03-11T11:26:30.907Z,3.05
2019-03-11T11:28:58.277Z,2.62
2019-03-11T11:31:25.704Z,3.37
2019-03-11T11:33:53.088Z,3.15
2019-03-11T11:36:20.486Z,2.90
2019-03-11T11:38:47.903Z,3.47
2019-03-11T11:41:16.562Z,4.12
2019-03-11T11:43:44.172Z,3.05
2019-03-11T11:46:11.652Z,3.90
2019-03-11T11:48:39.147Z,3.60
2019-03-11T11:51:06.605Z,3.27
2019-03-11T11:53:33.962Z,3.37
2019-03-11T11:56:01.417Z,3.30
2019-03-11T11:58:28.854Z,3.20
2019-03-11T12:00:56.206Z,3.55
2019-03-11T12:03:23.605Z,3.75
2019-03-11T12:05:51.081Z,3.22
2019-03-11T12:08:18.544Z,3.47
2019-03-11T12:10:45.953Z,3.20
2019-03-11T12:13:13.350Z,3.33
2019-03-11T12:15:40.739Z,3.37
2019-03-11T12:18:08.187Z,3.30
2019-03-11T12:20:35.597Z,3.05
2019-03-11T12:23:02.970Z,3.45
2019-03-11T12:25:30.333Z,3.37
2019-03-11T12:27:58.313Z,2.85
2019-03-11T12:30:26.964Z,3.05
2019-03-11T12:32:54.336Z,3.30
2019-03-11T12:35:21.749Z,3.85
2019-03-11T12:37:49.129Z,3.47
2019-03-11T12:40:17.002Z,3.58
2019-03-11T12:42:44.420Z,3.47
2019-03-11T12:45:13.474Z,3.55
2019-03-11T12:47:40.873Z,3.58
2019-03-11T12:50:09.810Z,3.17
2019-03-11T12:52:37.197Z,3.10
2019-03-11T12:55:05.047Z,3.83
2019-03-11T12:57:32.458Z,3.80
2019-03-11T12:59:59.839Z,3.47
2019-03-11T13:02:27.220Z,3.08
2019-03-11T13:04:54.615Z,3.42
2019-03-11T13:07:21.978Z,3.08
2019-03-11T13:09:49.393Z,3.60
2019-03-11T13:12:16.830Z,2.98
2019-03-11T13:14:44.250Z,3.05
2019-03-11T13:17:11.614Z,2.45
2019-03-11T13:19:39.014Z,3.08
2019-03-11T13:22:06.409Z,3.30
2019-03-11T13:24:33.786Z,2.85
2019-03-11T13:27:01.184Z,3.20
2019-03-11T13:29:28.576Z,2.95
2019-03-11T13:31:56.027Z,2.98
2019-03-11T13:34:24.099Z,2.47
2019-03-11T13:36:51.639Z,2.30
2019-03-11T13:39:19.036Z,3.02
2019-03-11T13:41:46.454Z,2.77
2019-03-11T13:44:13.836Z,2.70
2019-03-11T13:46:41.243Z,2.58
2019-03-11T13:49:08.608Z,1.77
2019-03-11T13:51:36.004Z,1.77
2019-03-11T13:54:03.433Z,2.08
2019-03-11T13:56:30.902Z,1.82
2019-03-11T13:58:58.338Z,2.45
2019-03-11T14:01:25.739Z,2.10
2019-03-11T14:03:53.122Z,2.15
2019-03-11T14:06:20.525Z,1.92
2019-03-11T14:08:47.901Z,2.15
2019-03-11T14:11:15.378Z,1.87
2019-03-11T14:13:42.793Z,2.20
2019-03-11T14:16:10.159Z,2.60
2019-03-11T14:18:37.557Z,2.37
2019-03-11T14:21:04.981Z,2.02
2019-03-11T14:23:32.375Z,2.20
2019-03-11T14:25:59.784Z,2.12
2019-03-11T14:28:27.260Z,2.02
2019-03-11T14:30:54.642Z,2.50
2019-03-11T14:33:22.057Z,1.77
2019-03-11T14:35:52.093Z,3.65
2019-03-11T14:38:18.601Z,1.90
2019-03-11T14:40:46.002Z,1.90
2019-03-11T14:43:13.393Z,1.82
2019-03-11T14:45:40.871Z,2.45
2019-03-11T14:48:08.345Z,1.87
2019-03-11T14:50:36.143Z,1.65
2019-03-11T14:53:03.651Z,2.67
2019-03-11T14:55:31.066Z,2.22
2019-03-11T14:58:00.871Z,3.33
2019-03-11T15:00:27.606Z,1.85
2019-03-11T15:02:54.995Z,2.10
2019-03-11T15:05:22.554Z,2.17
2019-03-11T15:07:49.972Z,1.90
2019-03-11T15:10:17.800Z,1.87
2019-03-11T15:12:45.262Z,1.80
2019-03-11T15:15:17.323Z,1.85
2019-03-11T15:17:44.699Z,1.90
2019-03-11T15:20:12.675Z,1.95
2019-03-11T15:22:40.078Z,1.77
2019-03-11T15:25:11.385Z,2.40
2019-03-11T15:27:38.776Z,2.10
2019-03-11T15:30:10.489Z,1.93
2019-03-11T15:32:37.881Z,2.00
2019-03-11T15:35:06.219Z,1.97
2019-03-11T15:37:33.590Z,1.67
2019-03-11T15:40:01.032Z,1.65
2019-03-11T15:42:28.454Z,1.70
2019-03-11T15:44:55.923Z,1.80
2019-03-11T15:47:23.305Z,1.60
2019-03-11T15:49:50.701Z,1.90
2019-03-11T15:52:18.096Z,2.17
2019-03-11T15:54:45.528Z,2.20
2019-03-11T15:57:12.913Z,1.60
2019-03-11T15:59:40.290Z,1.70
2019-03-11T16:02:07.701Z,2.72
2019-03-11T16:04:35.157Z,2.35
2019-03-11T16:07:02.627Z,1.73
2019-03-11T16:09:30.028Z,2.27
2019-03-11T16:11:57.433Z,1.87
2019-03-11T16:14:24.799Z,2.12
2019-03-11T16:16:52.331Z,1.77
2019-03-11T16:19:19.924Z,2.00
2019-03-11T16:21:47.426Z,2.00
2019-03-11T16:24:14.877Z,2.60
2019-03-11T16:26:42.358Z,2.00
2019-03-11T16:29:09.772Z,2.42
2019-03-11T16:31:37.149Z,2.40
2019-03-11T16:34:04.556Z,2.40
2019-03-11T16:36:31.930Z,2.98
2019-03-11T16:38:59.312Z,2.50
2019-03-11T16:41:26.716Z,2.45
2019-03-11T16:43:54.145Z,2.33
2019-03-11T16:46:21.515Z,2.45
2019-03-11T16:48:48.914Z,2.40
2019-03-11T16:51:16.312Z,2.42
2019-03-11T16:53:43.712Z,2.92
2019-03-11T16:56:11.151Z,2.30
2019-03-11T16:58:38.573Z,2.58
2019-03-11T17:01:07.755Z,2.62
2019-03-11T17:03:35.138Z,2.92
2019-03-11T17:06:02.531Z,2.22
2019-03-11T17:08:29.987Z,3.00
2019-03-11T17:10:57.437Z,2.70
2019-03-11T17:13:24.902Z,2.30
2019-03-11T17:15:52.316Z,2.72
2019-03-11T17:18:19.766Z,2.30
2019-03-11T17:20:47.179Z,2.52
2019-03-11T17:23:14.587Z,2.70
2019-03-11T17:25:42.082Z,2.40
2019-03-11T17:28:09.483Z,2.72
2019-03-11T17:30:36.900Z,2.50
2019-03-11T17:33:04.358Z,2.20
2019-03-11T17:35:31.864Z,2.95
2019-03-11T17:37:59.263Z,2.58
2019-03-11T17:40:26.827Z,2.90
2019-03-11T17:42:54.407Z,2.65
2019-03-11T17:45:21.945Z,3.12
2019-03-11T17:47:49.357Z,3.40
2019-03-11T17:50:17.580Z,2.90
2019-03-11T17:52:45.267Z,2.72
2019-03-11T17:55:13.034Z,3.30
2019-03-11T17:57:40.419Z,2.10
2019-03-11T18:00:10.413Z,3.00
2019-03-11T18:02:37.831Z,3.22
2019-03-11T18:05:05.369Z,3.10
2019-03-11T18:07:32.855Z,4.25
2019-03-11T18:10:00.492Z,3.37
2019-03-11T18:12:27.922Z,3.80
2019-03-11T18:14:55.319Z,4.00
2019-03-11T18:17:22.723Z,4.42
2019-03-11T18:19:50.189Z,3.98
2019-03-11T18:22:17.605Z,3.50
2019-03-11T18:24:45.053Z,4.60
2019-03-11T18:27:12.446Z,4.60
2019-03-11T18:29:39.860Z,4.47
2019-03-11T18:32:07.276Z,4.10
2019-03-11T18:34:34.735Z,3.62
2019-03-11T18:37:02.198Z,3.62
2019-03-11T18:39:29.649Z,3.98
2019-03-11T18:41:57.070Z,3.37
2019-03-11T18:44:24.587Z,2.30
2019-03-11T18:46:52.036Z,2.60
2019-03-11T18:49:19.490Z,3.40
2019-03-11T18:51:46.963Z,2.58
2019-03-11T18:54:14.450Z,3.70
2019-03-11T18:56:41.967Z,3.37
2019-03-11T18:59:09.493Z,3.90
2019-03-11T19:01:36.933Z,3.75
2019-03-11T19:04:04.419Z,3.65
2019-03-11T19:06:31.891Z,4.30
2019-03-11T19:08:59.330Z,4.03
2019-03-11T19:11:26.705Z,4.62
2019-03-11T19:13:54.087Z,3.98
2019-03-11T19:16:21.562Z,4.37
2019-03-11T19:18:49.014Z,4.60
2019-03-11T19:21:16.514Z,4.92
2019-03-11T19:23:43.967Z,5.12
2019-03-11T19:26:11.424Z,4.47
2019-03-11T19:28:38.935Z,12.07
2019-03-11T19:31:06.507Z,5.00
2019-03-11T19:33:33.909Z,4.00
2019-03-11T19:36:01.354Z,4.08
2019-03-11T19:38:28.792Z,8.30
2019-03-11T19:40:56.220Z,5.70
2019-03-11T19:43:23.695Z,5.12
2019-03-11T19:45:51.186Z,4.10
2019-03-11T19:48:18.644Z,4.00
2019-03-11T19:50:46.141Z,7.10
2019-03-11T19:53:13.542Z,4.05
2019-03-11T19:55:41.025Z,4.00
2019-03-11T19:58:08.455Z,4.45
2019-03-11T20:00:35.866Z,3.55
2019-03-11T20:03:03.345Z,3.52
2019-03-11T20:05:32.339Z,3.25
2019-03-11T20:07:59.902Z,4.10
2019-03-11T20:10:27.472Z,3.75
2019-03-11T20:12:54.994Z,3.77
2019-03-11T20:15:22.422Z,3.45
2019-03-11T20:17:49.894Z,3.30
2019-03-11T20:20:17.869Z,3.65
2019-03-11T20:22:45.287Z,3.87
2019-03-11T20:25:14.327Z,3.58
2019-03-11T20:27:41.791Z,3.05
2019-03-11T20:30:10.787Z,2.67
2019-03-11T20:32:38.293Z,2.80
2019-03-11T20:35:05.860Z,3.40
2019-03-11T20:37:33.358Z,3.45
2019-03-11T20:40:00.865Z,3.12
2019-03-11T20:42:28.383Z,3.85
2019-03-11T20:44:55.936Z,3.70
2019-03-11T20:47:23.398Z,3.70
2019-03-11T20:49:50.907Z,3.40
2019-03-11T20:52:18.336Z,2.83
2019-03-11T20:54:45.704Z,2.90
2019-03-11T20:57:13.178Z,3.10
2019-03-11T20:59:40.645Z,3.83
2019-03-11T21:02:08.141Z,2.98
2019-03-11T21:04:35.549Z,3.00
2019-03-11T21:07:03.088Z,3.47
2019-03-11T21:09:30.590Z,3.85
2019-03-11T21:11:58.173Z,3.02
2019-03-11T21:14:25.750Z,3.85
2019-03-11T21:16:53.170Z,2.92
2019-03-11T21:19:20.606Z,3.30
2019-03-11T21:21:48.082Z,3.10
2019-03-11T21:24:15.551Z,3.40
2019-03-11T21:26:43.076Z,3.67
2019-03-11T21:29:10.622Z,3.65
2019-03-11T21:31:38.093Z,3.75
2019-03-11T21:34:05.634Z,4.05
2019-03-11T21:36:33.145Z,4.37
2019-03-11T21:39:00.603Z,4.28
2019-03-11T21:41:28.082Z,4.37
2019-03-11T21:43:55.547Z,5.30
2019-03-11T21:46:22.960Z,5.70
2019-03-11T21:48:50.357Z,5.67
2019-03-11T21:51:17.829Z,5.33
2019-03-11T21:53:45.453Z,4.78
2019-03-11T21:56:12.957Z,5.83
2019-03-11T21:58:40.428Z,5.65
2019-03-11T22:01:07.929Z,6.10
2019-03-11T22:03:35.358Z,6.35
2019-03-11T22:06:02.767Z,7.03
2019-03-11T22:08:30.145Z,6.03
2019-03-11T22:10:57.534Z,6.42
2019-03-11T22:13:24.901Z,6.83
2019-03-11T22:15:52.292Z,6.30
2019-03-11T22:18:19.859Z,7.05
2019-03-11T22:20:47.239Z,6.37
2019-03-11T22:23:14.612Z,8.18
2019-03-11T22:25:41.999Z,7.30
2019-03-11T22:28:09.379Z,7.92
2019-03-11T22:30:36.750Z,7.85
2019-03-11T22:33:04.200Z,7.42
2019-03-11T22:35:31.595Z,6.90
2019-03-11T22:37:58.993Z,7.47
2019-03-11T22:40:26.425Z,7.65
2019-03-11T22:42:53.851Z,8.33
2019-03-11T22:45:21.402Z,8.33
2019-03-11T22:47:51.950Z,7.30
2019-03-11T22:50:19.804Z,8.45
2019-03-11T22:52:47.514Z,8.00
2019-03-11T22:55:15.095Z,9.45
2019-03-11T22:57:42.473Z,8.40
2019-03-11T23:00:30.006Z,8.85
2019-03-11T23:02:57.386Z,7.87
2019-03-11T23:05:24.760Z,7.62
2019-03-11T23:07:52.154Z,8.85
2019-03-11T23:10:19.550Z,7.83
2019-03-11T23:12:46.947Z,8.00
2019-03-11T23:15:14.352Z,7.75
2019-03-11T23:17:41.722Z,7.80
2019-03-11T23:20:09.116Z,7.65
2019-03-11T23:22:36.528Z,7.85
2019-03-11T23:25:05.608Z,7.37
2019-03-11T23:27:35.159Z,7.78
2019-03-11T23:30:02.174Z,7.50
2019-03-11T23:32:29.576Z,8.90
2019-03-11T23:34:56.945Z,7.92
2019-03-11T23:37:24.354Z,8.50
2019-03-11T23:39:51.790Z,8.18
2019-03-11T23:42:19.158Z,7.65
2019-03-11T23:44:46.546Z,8.25
2019-03-11T23:47:13.982Z,8.00
2019-03-11T23:49:41.354Z,8.65
2019-03-11T23:52:08.747Z,8.70
2019-03-11T23:54:36.138Z,8.98
2019-03-11T23:57:03.624Z,9.90
2019-03-11T23:59:31.000Z,10.20
